sensor_id;sensor_type;location;lat;lon;timestamp;temperature;humidity
20158;DHT22;10239;56.820;24.416;2023-07-24T00:01:16;16.70;99.90
20158;DHT22;10239;56.820;24.416;2023-07-24T00:03:45;16.70;99.90
20158;DHT22;10239;56.820;24.416;2023-07-24T00:06:13;16.70;99.90
20158;DHT22;10239;56.820;24.416;2023-07-24T00:08:41;16.80;99.90
20158;DHT22;10239;56.820;24.416;2023-07-24T00:11:08;16.80;99.90
20158;DHT22;10239;56.820;24.416;2023-07-24T00:13:36;16.80;99.90
20158;DHT22;10239;56.820;24.416;2023-07-24T00:16:08;16.90;99.90
20158;DHT22;10239;56.820;24.416;2023-07-24T00:18:36;16.90;99.90
20158;DHT22;10239;56.820;24.416;2023-07-24T00:21:03;17.00;99.90
20158;DHT22;10239;56.820;24.416;2023-07-24T00:23:31;16.90;99.90
20158;DHT22;10239;56.820;24.416;2023-07-24T00:25:58;16.80;99.90
20158;DHT22;10239;56.820;24.416;2023-07-24T00:28:26;16.80;99.90
20158;DHT22;10239;56.820;24.416;2023-07-24T00:30:53;16.70;99.90
20158;DHT22;10239;56.820;24.416;2023-07-24T00:33:21;16.80;99.90
20158;DHT22;10239;56.820;24.416;2023-07-24T00:35:49;16.80;99.90
20158;DHT22;10239;56.820;24.416;2023-07-24T00:38:16;16.80;99.90
20158;DHT22;10239;56.820;24.416;2023-07-24T00:40:44;16.80;99.90
20158;DHT22;10239;56.820;24.416;2023-07-24T00:43:12;16.80;99.90
20158;DHT22;10239;56.820;24.416;2023-07-24T00:45:39;16.80;99.90
20158;DHT22;10239;56.820;24.416;2023-07-24T00:48:07;16.90;99.90
20158;DHT22;10239;56.820;24.416;2023-07-24T00:50:39;16.80;99.90
20158;DHT22;10239;56.820;24.416;2023-07-24T00:53:08;16.90;99.90
20158;DHT22;10239;56.820;24.416;2023-07-24T00:55:36;16.90;99.90
20158;DHT22;10239;56.820;24.416;2023-07-24T00:58:04;16.80;99.90
20158;DHT22;10239;56.820;24.416;2023-07-24T01:00:32;16.80;99.90
20158;DHT22;10239;56.820;24.416;2023-07-24T01:03:00;16.80;99.90
20158;DHT22;10239;56.820;24.416;2023-07-24T01:05:28;16.90;99.90
20158;DHT22;10239;56.820;24.416;2023-07-24T01:07:57;16.80;99.90
20158;DHT22;10239;56.820;24.416;2023-07-24T01:10:25;16.80;99.90
20158;DHT22;10239;56.820;24.416;2023-07-24T01:15:37;16.80;99.90
20158;DHT22;10239;56.820;24.416;2023-07-24T01:18:10;16.80;99.90
20158;DHT22;10239;56.820;24.416;2023-07-24T01:20:43;16.90;99.90
20158;DHT22;10239;56.820;24.416;2023-07-24T01:23:36;16.90;99.90
20158;DHT22;10239;56.820;24.416;2023-07-24T01:26:05;16.90;99.90
20158;DHT22;10239;56.820;24.416;2023-07-24T01:28:34;16.90;99.90
20158;DHT22;10239;56.820;24.416;2023-07-24T01:31:01;16.90;99.90
20158;DHT22;10239;56.820;24.416;2023-07-24T01:33:29;16.90;99.90
20158;DHT22;10239;56.820;24.416;2023-07-24T01:36:00;16.80;99.90
20158;DHT22;10239;56.820;24.416;2023-07-24T01:38:31;16.80;99.90
20158;DHT22;10239;56.820;24.416;2023-07-24T01:41:02;16.70;99.90
20158;DHT22;10239;56.820;24.416;2023-07-24T01:43:30;16.80;99.90
20158;DHT22;10239;56.820;24.416;2023-07-24T01:45:59;16.80;99.90
20158;DHT22;10239;56.820;24.416;2023-07-24T01:48:27;16.70;99.90
20158;DHT22;10239;56.820;24.416;2023-07-24T01:50:54;16.80;99.90
20158;DHT22;10239;56.820;24.416;2023-07-24T01:53:22;16.60;99.90
20158;DHT22;10239;56.820;24.416;2023-07-24T01:55:49;16.70;99.90
20158;DHT22;10239;56.820;24.416;2023-07-24T01:58:17;16.70;99.90
20158;DHT22;10239;56.820;24.416;2023-07-24T02:00:44;16.70;99.90
20158;DHT22;10239;56.820;24.416;2023-07-24T02:03:12;16.70;99.90
20158;DHT22;10239;56.820;24.416;2023-07-24T02:05:40;16.80;99.90
20158;DHT22;10239;56.820;24.416;2023-07-24T02:08:07;16.80;99.90
20158;DHT22;10239;56.820;24.416;2023-07-24T02:10:37;16.90;99.90
20158;DHT22;10239;56.820;24.416;2023-07-24T02:13:05;16.90;99.90
20158;DHT22;10239;56.820;24.416;2023-07-24T02:15:34;17.00;99.90
20158;DHT22;10239;56.820;24.416;2023-07-24T02:18:02;16.90;99.90
20158;DHT22;10239;56.820;24.416;2023-07-24T02:20:30;17.00;99.90
20158;DHT22;10239;56.820;24.416;2023-07-24T02:22:57;17.00;99.90
20158;DHT22;10239;56.820;24.416;2023-07-24T02:25:26;17.00;99.90
20158;DHT22;10239;56.820;24.416;2023-07-24T02:27:54;16.80;99.90
20158;DHT22;10239;56.820;24.416;2023-07-24T02:30:23;16.90;99.90
20158;DHT22;10239;56.820;24.416;2023-07-24T02:32:50;17.00;99.90
20158;DHT22;10239;56.820;24.416;2023-07-24T02:35:18;17.00;99.90
20158;DHT22;10239;56.820;24.416;2023-07-24T02:37:45;17.10;99.90
20158;DHT22;10239;56.820;24.416;2023-07-24T02:40:13;17.20;99.90
20158;DHT22;10239;56.820;24.416;2023-07-24T02:42:41;17.00;99.90
20158;DHT22;10239;56.820;24.416;2023-07-24T02:45:09;17.00;99.90
20158;DHT22;10239;56.820;24.416;2023-07-24T02:47:38;17.00;99.90
20158;DHT22;10239;56.820;24.416;2023-07-24T02:50:06;16.90;99.90
20158;DHT22;10239;56.820;24.416;2023-07-24T02:52:34;16.90;99.90
20158;DHT22;10239;56.820;24.416;2023-07-24T02:55:02;17.00;99.90
20158;DHT22;10239;56.820;24.416;2023-07-24T02:57:29;17.10;99.90
20158;DHT22;10239;56.820;24.416;2023-07-24T02:59:57;17.20;99.90
20158;DHT22;10239;56.820;24.416;2023-07-24T03:02:25;17.40;99.90
20158;DHT22;10239;56.820;24.416;2023-07-24T03:04:52;17.50;99.90
20158;DHT22;10239;56.820;24.416;2023-07-24T03:07:20;17.50;99.90
20158;DHT22;10239;56.820;24.416;2023-07-24T03:09:47;17.40;99.90
20158;DHT22;10239;56.820;24.416;2023-07-24T03:12:15;17.50;99.90
20158;DHT22;10239;56.820;24.416;2023-07-24T03:14:43;17.50;99.90
20158;DHT22;10239;56.820;24.416;2023-07-24T03:17:10;17.70;99.90
20158;DHT22;10239;56.820;24.416;2023-07-24T03:19:38;17.80;99.90
20158;DHT22;10239;56.820;24.416;2023-07-24T03:22:05;17.60;99.90
20158;DHT22;10239;56.820;24.416;2023-07-24T03:24:34;17.50;99.90
20158;DHT22;10239;56.820;24.416;2023-07-24T03:27:02;17.60;99.90
20158;DHT22;10239;56.820;24.416;2023-07-24T03:29:30;17.70;99.90
20158;DHT22;10239;56.820;24.416;2023-07-24T03:31:57;17.80;99.90
20158;DHT22;10239;56.820;24.416;2023-07-24T03:34:25;17.80;99.90
20158;DHT22;10239;56.820;24.416;2023-07-24T03:36:53;17.80;99.90
20158;DHT22;10239;56.820;24.416;2023-07-24T03:39:21;17.80;99.90
20158;DHT22;10239;56.820;24.416;2023-07-24T03:41:48;17.60;99.90
20158;DHT22;10239;56.820;24.416;2023-07-24T03:44:16;17.40;99.90
20158;DHT22;10239;56.820;24.416;2023-07-24T03:46:43;17.50;99.90
20158;DHT22;10239;56.820;24.416;2023-07-24T03:49:11;17.50;99.90
20158;DHT22;10239;56.820;24.416;2023-07-24T03:51:38;17.50;99.90
20158;DHT22;10239;56.820;24.416;2023-07-24T03:54:06;17.50;99.90
20158;DHT22;10239;56.820;24.416;2023-07-24T03:56:33;17.50;99.90
20158;DHT22;10239;56.820;24.416;2023-07-24T03:59:01;17.60;99.90
20158;DHT22;10239;56.820;24.416;2023-07-24T04:01:28;17.60;99.90
20158;DHT22;10239;56.820;24.416;2023-07-24T04:03:56;17.70;99.90
20158;DHT22;10239;56.820;24.416;2023-07-24T04:06:23;17.80;99.90
20158;DHT22;10239;56.820;24.416;2023-07-24T04:08:51;17.80;99.90
20158;DHT22;10239;56.820;24.416;2023-07-24T04:11:18;17.90;99.90
20158;DHT22;10239;56.820;24.416;2023-07-24T04:13:45;17.90;99.90
20158;DHT22;10239;56.820;24.416;2023-07-24T04:16:13;17.90;99.90
20158;DHT22;10239;56.820;24.416;2023-07-24T04:18:41;18.00;99.90
20158;DHT22;10239;56.820;24.416;2023-07-24T04:21:08;18.20;99.90
20158;DHT22;10239;56.820;24.416;2023-07-24T04:23:37;18.40;99.90
20158;DHT22;10239;56.820;24.416;2023-07-24T04:26:04;18.50;99.90
20158;DHT22;10239;56.820;24.416;2023-07-24T04:28:32;18.70;99.90
20158;DHT22;10239;56.820;24.416;2023-07-24T04:31:00;19.00;99.90
20158;DHT22;10239;56.820;24.416;2023-07-24T04:33:29;19.20;99.90
20158;DHT22;10239;56.820;24.416;2023-07-24T04:35:58;19.30;99.90
20158;DHT22;10239;56.820;24.416;2023-07-24T04:38:26;19.10;99.90
20158;DHT22;10239;56.820;24.416;2023-07-24T04:40:54;18.90;99.90
20158;DHT22;10239;56.820;24.416;2023-07-24T04:43:22;18.80;99.90
20158;DHT22;10239;56.820;24.416;2023-07-24T04:45:49;18.90;99.90
20158;DHT22;10239;56.820;24.416;2023-07-24T04:48:17;19.00;99.90
20158;DHT22;10239;56.820;24.416;2023-07-24T04:50:44;19.10;99.90
20158;DHT22;10239;56.820;24.416;2023-07-24T04:53:12;19.10;99.90
20158;DHT22;10239;56.820;24.416;2023-07-24T04:55:40;19.00;99.90
20158;DHT22;10239;56.820;24.416;2023-07-24T04:58:07;19.20;99.90
20158;DHT22;10239;56.820;24.416;2023-07-24T05:00:35;19.30;99.90
20158;DHT22;10239;56.820;24.416;2023-07-24T05:03:03;19.30;99.90
20158;DHT22;10239;56.820;24.416;2023-07-24T05:05:30;19.40;99.90
20158;DHT22;10239;56.820;24.416;2023-07-24T05:07:58;19.50;99.90
20158;DHT22;10239;56.820;24.416;2023-07-24T05:10:26;19.50;99.90
20158;DHT22;10239;56.820;24.416;2023-07-24T05:12:54;19.60;99.90
20158;DHT22;10239;56.820;24.416;2023-07-24T05:15:24;19.70;99.90
20158;DHT22;10239;56.820;24.416;2023-07-24T05:17:51;19.60;99.90
20158;DHT22;10239;56.820;24.416;2023-07-24T05:20:19;20.00;99.90
20158;DHT22;10239;56.820;24.416;2023-07-24T05:22:46;20.70;99.90
20158;DHT22;10239;56.820;24.416;2023-07-24T05:25:14;21.10;99.90
20158;DHT22;10239;56.820;24.416;2023-07-24T05:27:42;21.10;99.90
20158;DHT22;10239;56.820;24.416;2023-07-24T05:30:12;21.10;99.90
20158;DHT22;10239;56.820;24.416;2023-07-24T05:32:39;20.60;99.90
20158;DHT22;10239;56.820;24.416;2023-07-24T05:35:07;20.20;99.90
20158;DHT22;10239;56.820;24.416;2023-07-24T05:37:35;19.90;99.90
20158;DHT22;10239;56.820;24.416;2023-07-24T05:40:03;20.00;99.90
20158;DHT22;10239;56.820;24.416;2023-07-24T05:42:30;20.10;99.90
20158;DHT22;10239;56.820;24.416;2023-07-24T05:44:58;19.60;99.90
20158;DHT22;10239;56.820;24.416;2023-07-24T05:47:26;19.70;99.90
20158;DHT22;10239;56.820;24.416;2023-07-24T05:49:54;19.70;99.90
20158;DHT22;10239;56.820;24.416;2023-07-24T05:52:21;19.90;99.90
20158;DHT22;10239;56.820;24.416;2023-07-24T05:54:49;19.60;99.90
20158;DHT22;10239;56.820;24.416;2023-07-24T05:57:17;19.50;99.90
20158;DHT22;10239;56.820;24.416;2023-07-24T05:59:44;19.50;99.90
20158;DHT22;10239;56.820;24.416;2023-07-24T06:02:12;19.00;99.90
20158;DHT22;10239;56.820;24.416;2023-07-24T06:04:40;19.20;99.90
20158;DHT22;10239;56.820;24.416;2023-07-24T06:07:07;19.20;99.90
20158;DHT22;10239;56.820;24.416;2023-07-24T06:09:35;19.20;99.90
20158;DHT22;10239;56.820;24.416;2023-07-24T06:12:03;19.60;99.90
20158;DHT22;10239;56.820;24.416;2023-07-24T06:14:31;19.50;99.90
20158;DHT22;10239;56.820;24.416;2023-07-24T06:16:58;19.20;99.90
20158;DHT22;10239;56.820;24.416;2023-07-24T06:19:26;19.60;99.90
20158;DHT22;10239;56.820;24.416;2023-07-24T06:21:53;20.10;99.90
20158;DHT22;10239;56.820;24.416;2023-07-24T06:24:21;20.60;99.90
20158;DHT22;10239;56.820;24.416;2023-07-24T06:26:50;20.60;99.90
20158;DHT22;10239;56.820;24.416;2023-07-24T06:29:18;21.10;99.90
20158;DHT22;10239;56.820;24.416;2023-07-24T06:31:46;21.00;99.90
20158;DHT22;10239;56.820;24.416;2023-07-24T06:34:13;20.90;99.90
20158;DHT22;10239;56.820;24.416;2023-07-24T06:36:41;21.10;99.90
20158;DHT22;10239;56.820;24.416;2023-07-24T06:39:09;21.10;99.90
20158;DHT22;10239;56.820;24.416;2023-07-24T06:41:36;20.30;99.90
20158;DHT22;10239;56.820;24.416;2023-07-24T06:44:04;20.20;99.90
20158;DHT22;10239;56.820;24.416;2023-07-24T06:46:32;20.50;99.90
20158;DHT22;10239;56.820;24.416;2023-07-24T06:49:00;20.60;99.90
20158;DHT22;10239;56.820;24.416;2023-07-24T06:51:27;20.90;99.90
20158;DHT22;10239;56.820;24.416;2023-07-24T06:53:55;21.10;99.90
20158;DHT22;10239;56.820;24.416;2023-07-24T06:56:22;21.20;99.90
20158;DHT22;10239;56.820;24.416;2023-07-24T06:58:50;21.50;99.90
20158;DHT22;10239;56.820;24.416;2023-07-24T07:01:18;21.50;99.90
20158;DHT22;10239;56.820;24.416;2023-07-24T07:03:46;21.80;99.90
20158;DHT22;10239;56.820;24.416;2023-07-24T07:06:13;23.20;99.90
20158;DHT22;10239;56.820;24.416;2023-07-24T07:08:44;24.10;99.90
20158;DHT22;10239;56.820;24.416;2023-07-24T07:11:12;25.10;99.90
20158;DHT22;10239;56.820;24.416;2023-07-24T07:13:39;25.20;99.90
20158;DHT22;10239;56.820;24.416;2023-07-24T07:16:07;24.60;99.90
20158;DHT22;10239;56.820;24.416;2023-07-24T07:18:34;24.60;99.90
20158;DHT22;10239;56.820;24.416;2023-07-24T07:21:02;23.80;99.90
20158;DHT22;10239;56.820;24.416;2023-07-24T07:23:30;22.60;99.90
20158;DHT22;10239;56.820;24.416;2023-07-24T07:25:57;22.50;99.90
20158;DHT22;10239;56.820;24.416;2023-07-24T07:28:25;22.40;99.90
20158;DHT22;10239;56.820;24.416;2023-07-24T07:30:53;21.50;99.90
20158;DHT22;10239;56.820;24.416;2023-07-24T07:33:21;21.50;99.90
20158;DHT22;10239;56.820;24.416;2023-07-24T07:35:49;21.80;99.90
20158;DHT22;10239;56.820;24.416;2023-07-24T07:38:17;22.00;99.90
20158;DHT22;10239;56.820;24.416;2023-07-24T07:40:45;22.50;99.90
20158;DHT22;10239;56.820;24.416;2023-07-24T07:43:12;22.50;99.90
20158;DHT22;10239;56.820;24.416;2023-07-24T07:45:40;23.10;99.90
20158;DHT22;10239;56.820;24.416;2023-07-24T07:48:08;24.40;99.90
20158;DHT22;10239;56.820;24.416;2023-07-24T07:50:36;24.90;99.90
20158;DHT22;10239;56.820;24.416;2023-07-24T07:53:03;23.70;99.90
20158;DHT22;10239;56.820;24.416;2023-07-24T07:55:31;23.00;99.90
20158;DHT22;10239;56.820;24.416;2023-07-24T07:57:59;22.70;99.90
20158;DHT22;10239;56.820;24.416;2023-07-24T08:00:27;23.50;99.90
20158;DHT22;10239;56.820;24.416;2023-07-24T08:02:54;24.00;99.90
20158;DHT22;10239;56.820;24.416;2023-07-24T08:05:22;24.20;99.90
20158;DHT22;10239;56.820;24.416;2023-07-24T08:07:50;23.60;99.90
20158;DHT22;10239;56.820;24.416;2023-07-24T08:10:17;23.90;99.90
20158;DHT22;10239;56.820;24.416;2023-07-24T08:12:45;23.70;99.90
20158;DHT22;10239;56.820;24.416;2023-07-24T08:15:13;24.20;99.90
20158;DHT22;10239;56.820;24.416;2023-07-24T08:17:41;25.50;99.90
20158;DHT22;10239;56.820;24.416;2023-07-24T08:20:09;26.90;99.90
20158;DHT22;10239;56.820;24.416;2023-07-24T08:22:36;26.20;99.90
20158;DHT22;10239;56.820;24.416;2023-07-24T08:25:05;26.50;99.90
20158;DHT22;10239;56.820;24.416;2023-07-24T08:27:32;26.80;99.90
20158;DHT22;10239;56.820;24.416;2023-07-24T08:30:11;26.50;99.90
20158;DHT22;10239;56.820;24.416;2023-07-24T08:32:39;25.30;99.90
20158;DHT22;10239;56.820;24.416;2023-07-24T08:35:07;25.40;99.90
20158;DHT22;10239;56.820;24.416;2023-07-24T08:37:35;25.10;99.90
20158;DHT22;10239;56.820;24.416;2023-07-24T08:40:03;24.30;99.90
20158;DHT22;10239;56.820;24.416;2023-07-24T08:42:31;24.10;99.90
20158;DHT22;10239;56.820;24.416;2023-07-24T08:45:00;24.10;99.90
20158;DHT22;10239;56.820;24.416;2023-07-24T08:47:27;24.10;99.90
20158;DHT22;10239;56.820;24.416;2023-07-24T08:49:57;24.20;99.90
20158;DHT22;10239;56.820;24.416;2023-07-24T08:52:25;24.20;99.90
20158;DHT22;10239;56.820;24.416;2023-07-24T08:55:02;23.70;99.90
20158;DHT22;10239;56.820;24.416;2023-07-24T08:57:31;23.90;99.90
20158;DHT22;10239;56.820;24.416;2023-07-24T08:59:58;23.70;99.90
20158;DHT22;10239;56.820;24.416;2023-07-24T09:02:28;24.00;99.90
20158;DHT22;10239;56.820;24.416;2023-07-24T09:04:55;24.20;99.90
20158;DHT22;10239;56.820;24.416;2023-07-24T09:07:23;24.20;99.90
20158;DHT22;10239;56.820;24.416;2023-07-24T09:09:50;23.90;99.90
20158;DHT22;10239;56.820;24.416;2023-07-24T09:12:18;24.10;99.90
20158;DHT22;10239;56.820;24.416;2023-07-24T09:14:46;24.30;99.90
20158;DHT22;10239;56.820;24.416;2023-07-24T09:17:14;23.70;99.90
20158;DHT22;10239;56.820;24.416;2023-07-24T09:19:41;23.70;99.90
20158;DHT22;10239;56.820;24.416;2023-07-24T09:22:15;22.60;99.90
20158;DHT22;10239;56.820;24.416;2023-07-24T09:24:57;22.70;99.90
20158;DHT22;10239;56.820;24.416;2023-07-24T09:27:28;23.00;99.90
20158;DHT22;10239;56.820;24.416;2023-07-24T09:29:58;22.50;99.90
20158;DHT22;10239;56.820;24.416;2023-07-24T09:32:27;22.70;99.90
20158;DHT22;10239;56.820;24.416;2023-07-24T09:34:55;22.60;99.90
20158;DHT22;10239;56.820;24.416;2023-07-24T09:37:27;22.60;99.90
20158;DHT22;10239;56.820;24.416;2023-07-24T09:39:55;22.50;99.90
20158;DHT22;10239;56.820;24.416;2023-07-24T09:42:35;22.70;99.90
20158;DHT22;10239;56.820;24.416;2023-07-24T09:45:23;22.00;99.90
20158;DHT22;10239;56.820;24.416;2023-07-24T09:47:53;22.10;99.90
20158;DHT22;10239;56.820;24.416;2023-07-24T09:50:31;21.70;99.90
20158;DHT22;10239;56.820;24.416;2023-07-24T09:52:59;21.40;99.90
20158;DHT22;10239;56.820;24.416;2023-07-24T09:55:32;21.20;99.90
20158;DHT22;10239;56.820;24.416;2023-07-24T09:58:03;21.50;99.90
20158;DHT22;10239;56.820;24.416;2023-07-24T10:00:31;21.30;99.90
20158;DHT22;10239;56.820;24.416;2023-07-24T10:02:59;20.80;99.90
20158;DHT22;10239;56.820;24.416;2023-07-24T10:05:28;21.00;99.90
20158;DHT22;10239;56.820;24.416;2023-07-24T10:07:56;20.90;99.90
20158;DHT22;10239;56.820;24.416;2023-07-24T10:10:25;21.00;99.90
20158;DHT22;10239;56.820;24.416;2023-07-24T10:12:54;21.00;99.90
20158;DHT22;10239;56.820;24.416;2023-07-24T10:15:22;21.20;99.90
20158;DHT22;10239;56.820;24.416;2023-07-24T10:17:49;21.30;99.90
20158;DHT22;10239;56.820;24.416;2023-07-24T10:20:17;21.10;99.90
20158;DHT22;10239;56.820;24.416;2023-07-24T10:22:45;20.60;99.90
20158;DHT22;10239;56.820;24.416;2023-07-24T10:25:12;20.10;99.90
20158;DHT22;10239;56.820;24.416;2023-07-24T10:27:44;20.10;99.90
20158;DHT22;10239;56.820;24.416;2023-07-24T10:30:14;20.00;99.90
20158;DHT22;10239;56.820;24.416;2023-07-24T10:33:16;19.80;99.90
20158;DHT22;10239;56.820;24.416;2023-07-24T10:35:47;20.20;99.90
20158;DHT22;10239;56.820;24.416;2023-07-24T10:38:16;19.90;99.90
20158;DHT22;10239;56.820;24.416;2023-07-24T10:40:47;20.30;99.90
20158;DHT22;10239;56.820;24.416;2023-07-24T10:43:19;20.10;99.90
20158;DHT22;10239;56.820;24.416;2023-07-24T10:45:52;19.80;99.90
20158;DHT22;10239;56.820;24.416;2023-07-24T10:48:24;19.70;99.90
20158;DHT22;10239;56.820;24.416;2023-07-24T10:50:52;19.60;99.90
20158;DHT22;10239;56.820;24.416;2023-07-24T10:53:22;19.20;99.90
20158;DHT22;10239;56.820;24.416;2023-07-24T10:55:51;19.20;99.90
20158;DHT22;10239;56.820;24.416;2023-07-24T10:58:19;19.60;99.90
20158;DHT22;10239;56.820;24.416;2023-07-24T11:00:47;19.80;99.90
20158;DHT22;10239;56.820;24.416;2023-07-24T11:03:16;19.90;99.90
20158;DHT22;10239;56.820;24.416;2023-07-24T11:05:46;19.90;99.90
20158;DHT22;10239;56.820;24.416;2023-07-24T11:08:16;19.70;99.90
20158;DHT22;10239;56.820;24.416;2023-07-24T11:10:51;19.90;99.90
20158;DHT22;10239;56.820;24.416;2023-07-24T11:13:24;19.70;99.90
20158;DHT22;10239;56.820;24.416;2023-07-24T11:15:52;19.50;99.90
20158;DHT22;10239;56.820;24.416;2023-07-24T11:18:21;19.10;99.90
20158;DHT22;10239;56.820;24.416;2023-07-24T11:20:55;19.10;99.90
20158;DHT22;10239;56.820;24.416;2023-07-24T11:23:24;19.20;99.90
20158;DHT22;10239;56.820;24.416;2023-07-24T11:25:53;19.10;99.90
20158;DHT22;10239;56.820;24.416;2023-07-24T11:28:21;19.10;99.90
20158;DHT22;10239;56.820;24.416;2023-07-24T11:30:49;19.20;99.90
20158;DHT22;10239;56.820;24.416;2023-07-24T11:33:17;19.20;99.90
20158;DHT22;10239;56.820;24.416;2023-07-24T11:35:45;18.90;99.90
20158;DHT22;10239;56.820;24.416;2023-07-24T11:38:13;18.90;99.90
20158;DHT22;10239;56.820;24.416;2023-07-24T11:40:43;18.70;99.90
20158;DHT22;10239;56.820;24.416;2023-07-24T11:43:21;19.00;99.90
20158;DHT22;10239;56.820;24.416;2023-07-24T11:45:51;19.40;99.90
20158;DHT22;10239;56.820;24.416;2023-07-24T11:48:24;19.20;99.90
20158;DHT22;10239;56.820;24.416;2023-07-24T11:50:54;19.10;99.90
20158;DHT22;10239;56.820;24.416;2023-07-24T11:55:52;19.10;99.90
20158;DHT22;10239;56.820;24.416;2023-07-24T11:58:20;18.80;99.90
20158;DHT22;10239;56.820;24.416;2023-07-24T12:00:49;18.80;99.90
20158;DHT22;10239;56.820;24.416;2023-07-24T12:03:24;19.20;99.90
20158;DHT22;10239;56.820;24.416;2023-07-24T12:05:53;19.30;99.90
20158;DHT22;10239;56.820;24.416;2023-07-24T12:08:29;19.20;99.90
20158;DHT22;10239;56.820;24.416;2023-07-24T12:10:57;19.30;99.90
20158;DHT22;10239;56.820;24.416;2023-07-24T12:13:25;19.20;99.90
20158;DHT22;10239;56.820;24.416;2023-07-24T12:15:53;19.40;99.90
20158;DHT22;10239;56.820;24.416;2023-07-24T12:18:22;19.30;99.90
20158;DHT22;10239;56.820;24.416;2023-07-24T12:20:49;19.20;99.90
20158;DHT22;10239;56.820;24.416;2023-07-24T12:23:17;19.50;99.90
20158;DHT22;10239;56.820;24.416;2023-07-24T12:25:44;19.70;99.90
20158;DHT22;10239;56.820;24.416;2023-07-24T12:28:12;19.60;99.90
20158;DHT22;10239;56.820;24.416;2023-07-24T12:30:39;19.80;99.90
20158;DHT22;10239;56.820;24.416;2023-07-24T12:33:07;19.80;99.90
20158;DHT22;10239;56.820;24.416;2023-07-24T12:35:34;19.90;99.90
20158;DHT22;10239;56.820;24.416;2023-07-24T12:38:02;20.10;99.90
20158;DHT22;10239;56.820;24.416;2023-07-24T12:40:29;20.10;99.90
20158;DHT22;10239;56.820;24.416;2023-07-24T12:42:57;20.20;99.90
20158;DHT22;10239;56.820;24.416;2023-07-24T12:45:24;20.30;99.90
20158;DHT22;10239;56.820;24.416;2023-07-24T12:47:51;20.40;99.90
20158;DHT22;10239;56.820;24.416;2023-07-24T12:50:19;20.50;99.90
20158;DHT22;10239;56.820;24.416;2023-07-24T12:52:46;20.50;99.90
20158;DHT22;10239;56.820;24.416;2023-07-24T12:55:14;20.50;99.90
20158;DHT22;10239;56.820;24.416;2023-07-24T12:57:41;20.40;99.90
20158;DHT22;10239;56.820;24.416;2023-07-24T13:00:09;20.00;99.90
20158;DHT22;10239;56.820;24.416;2023-07-24T13:02:37;20.10;99.90
20158;DHT22;10239;56.820;24.416;2023-07-24T13:05:05;20.20;99.90
20158;DHT22;10239;56.820;24.416;2023-07-24T13:07:32;20.20;99.90
20158;DHT22;10239;56.820;24.416;2023-07-24T13:10:01;20.40;99.90
20158;DHT22;10239;56.820;24.416;2023-07-24T13:12:28;20.40;99.90
20158;DHT22;10239;56.820;24.416;2023-07-24T13:14:56;20.50;99.90
20158;DHT22;10239;56.820;24.416;2023-07-24T13:17:24;20.50;99.90
20158;DHT22;10239;56.820;24.416;2023-07-24T13:19:52;20.50;99.90
20158;DHT22;10239;56.820;24.416;2023-07-24T13:22:19;20.60;99.90
20158;DHT22;10239;56.820;24.416;2023-07-24T13:24:46;20.80;99.90
20158;DHT22;10239;56.820;24.416;2023-07-24T13:27:14;20.70;99.90
20158;DHT22;10239;56.820;24.416;2023-07-24T13:29:41;20.40;99.90
20158;DHT22;10239;56.820;24.416;2023-07-24T13:32:09;20.50;99.90
20158;DHT22;10239;56.820;24.416;2023-07-24T13:34:37;20.60;99.90
20158;DHT22;10239;56.820;24.416;2023-07-24T13:37:04;20.50;99.90
20158;DHT22;10239;56.820;24.416;2023-07-24T13:39:32;20.50;99.90
20158;DHT22;10239;56.820;24.416;2023-07-24T13:42:01;20.40;99.90
20158;DHT22;10239;56.820;24.416;2023-07-24T13:44:28;20.30;99.90
20158;DHT22;10239;56.820;24.416;2023-07-24T13:46:56;20.10;99.90
20158;DHT22;10239;56.820;24.416;2023-07-24T13:49:23;20.20;99.90
20158;DHT22;10239;56.820;24.416;2023-07-24T13:51:51;20.30;99.90
20158;DHT22;10239;56.820;24.416;2023-07-24T13:54:19;20.30;99.90
20158;DHT22;10239;56.820;24.416;2023-07-24T13:56:46;20.40;99.90
20158;DHT22;10239;56.820;24.416;2023-07-24T13:59:14;20.40;99.90
20158;DHT22;10239;56.820;24.416;2023-07-24T14:01:42;20.40;99.90
20158;DHT22;10239;56.820;24.416;2023-07-24T14:04:09;20.40;99.90
20158;DHT22;10239;56.820;24.416;2023-07-24T14:06:39;20.50;99.90
20158;DHT22;10239;56.820;24.416;2023-07-24T14:09:07;20.60;99.90
20158;DHT22;10239;56.820;24.416;2023-07-24T14:11:34;20.70;99.90
20158;DHT22;10239;56.820;24.416;2023-07-24T14:14:02;20.90;99.90
20158;DHT22;10239;56.820;24.416;2023-07-24T14:16:30;20.80;99.90
20158;DHT22;10239;56.820;24.416;2023-07-24T14:18:58;20.90;99.90
20158;DHT22;10239;56.820;24.416;2023-07-24T14:21:26;21.10;99.90
20158;DHT22;10239;56.820;24.416;2023-07-24T14:23:54;21.20;99.90
20158;DHT22;10239;56.820;24.416;2023-07-24T14:26:22;21.20;99.90
20158;DHT22;10239;56.820;24.416;2023-07-24T14:28:50;21.40;99.90
20158;DHT22;10239;56.820;24.416;2023-07-24T14:31:22;21.30;99.90
20158;DHT22;10239;56.820;24.416;2023-07-24T14:33:50;21.40;99.90
20158;DHT22;10239;56.820;24.416;2023-07-24T14:36:18;21.80;99.90
20158;DHT22;10239;56.820;24.416;2023-07-24T14:38:47;21.90;99.90
20158;DHT22;10239;56.820;24.416;2023-07-24T14:41:15;21.80;99.90
20158;DHT22;10239;56.820;24.416;2023-07-24T14:43:42;21.70;99.90
20158;DHT22;10239;56.820;24.416;2023-07-24T14:46:10;21.80;99.90
20158;DHT22;10239;56.820;24.416;2023-07-24T14:48:37;21.90;99.90
20158;DHT22;10239;56.820;24.416;2023-07-24T14:51:05;21.90;99.90
20158;DHT22;10239;56.820;24.416;2023-07-24T14:53:32;21.70;99.90
20158;DHT22;10239;56.820;24.416;2023-07-24T14:56:00;21.50;99.90
20158;DHT22;10239;56.820;24.416;2023-07-24T14:58:27;21.40;99.90
20158;DHT22;10239;56.820;24.416;2023-07-24T15:00:55;21.30;99.90
20158;DHT22;10239;56.820;24.416;2023-07-24T15:03:22;21.20;99.90
20158;DHT22;10239;56.820;24.416;2023-07-24T15:05:50;21.10;99.90
20158;DHT22;10239;56.820;24.416;2023-07-24T15:08:18;21.10;99.90
20158;DHT22;10239;56.820;24.416;2023-07-24T15:10:46;21.10;99.90
20158;DHT22;10239;56.820;24.416;2023-07-24T15:13:13;21.20;99.90
20158;DHT22;10239;56.820;24.416;2023-07-24T15:15:41;21.30;99.90
20158;DHT22;10239;56.820;24.416;2023-07-24T15:18:08;21.40;99.90
20158;DHT22;10239;56.820;24.416;2023-07-24T15:20:35;21.40;99.90
20158;DHT22;10239;56.820;24.416;2023-07-24T15:23:03;21.20;99.90
20158;DHT22;10239;56.820;24.416;2023-07-24T15:25:31;21.20;99.90
20158;DHT22;10239;56.820;24.416;2023-07-24T15:27:59;21.50;99.90